createdAt,value
2023-02-08T00:01:22.685Z,4.60
2023-02-08T00:03:50.564Z,4.70
2023-02-08T00:06:18.612Z,4.70
2023-02-08T00:08:46.497Z,4.70
2023-02-08T00:11:13.857Z,4.70
2023-02-08T00:13:42.405Z,4.70
2023-02-08T00:16:10.375Z,4.70
2023-02-08T00:18:37.742Z,4.70
2023-02-08T00:21:10.072Z,4.70
2023-02-08T00:23:37.559Z,4.70
2023-02-08T00:26:05.337Z,4.60
2023-02-08T00:28:32.632Z,4.60
2023-02-08T00:30:59.997Z,4.50
2023-02-08T00:33:27.338Z,4.60
2023-02-08T00:36:02.349Z,4.60
2023-02-08T00:38:30.073Z,4.60
2023-02-08T00:40:57.369Z,4.50
2023-02-08T00:43:24.830Z,4.50
2023-02-08T00:45:56.552Z,4.40
2023-02-08T00:48:26.261Z,4.40
2023-02-08T00:51:09.994Z,4.40
2023-02-08T00:53:39.227Z,4.40
2023-02-08T00:56:08.121Z,4.30
2023-02-08T00:58:35.929Z,4.30
2023-02-08T01:01:05.261Z,4.30
2023-02-08T01:03:38.385Z,4.30
2023-02-08T01:06:08.396Z,4.30
2023-02-08T01:08:36.165Z,4.30
2023-02-08T01:11:09.615Z,4.20
2023-02-08T01:13:38.476Z,4.20
2023-02-08T01:16:14.347Z,4.20
2023-02-08T01:18:43.455Z,4.10
2023-02-08T01:21:13.456Z,4.10
2023-02-08T01:23:41.566Z,4.10
2023-02-08T01:26:10.501Z,4.10
2023-02-08T01:28:39.950Z,4.00
2023-02-08T01:31:12.832Z,3.90
2023-02-08T01:33:40.223Z,3.90
2023-02-08T01:36:08.435Z,3.90
2023-02-08T01:38:37.612Z,3.90
2023-02-08T01:41:07.023Z,3.90
2023-02-08T01:43:55.680Z,3.80
2023-02-08T01:46:23.540Z,3.80
2023-02-08T01:48:51.799Z,3.90
2023-02-08T01:51:23.739Z,3.80
2023-02-08T01:53:52.603Z,3.80
2023-02-08T01:56:31.871Z,3.80
2023-02-08T01:59:04.980Z,3.70
2023-02-08T02:01:33.008Z,3.70
2023-02-08T02:04:05.964Z,3.60
2023-02-08T02:06:40.782Z,3.60
2023-02-08T02:09:14.358Z,3.60
2023-02-08T02:11:42.520Z,3.50
2023-02-08T02:14:10.625Z,3.50
2023-02-08T02:16:38.093Z,3.50
2023-02-08T02:19:11.388Z,3.40
2023-02-08T02:21:46.070Z,3.40
2023-02-08T02:24:35.023Z,3.40
2023-02-08T02:27:11.142Z,3.40
2023-02-08T02:29:56.965Z,3.40
2023-02-08T02:32:34.720Z,3.40
2023-02-08T02:35:36.958Z,3.40
2023-02-08T02:38:23.202Z,3.40
2023-02-08T02:40:50.483Z,3.30
2023-02-08T02:43:42.331Z,3.30
2023-02-08T02:46:25.755Z,3.30
2023-02-08T02:49:15.360Z,3.20
2023-02-08T02:51:50.984Z,3.20
2023-02-08T02:54:34.082Z,3.20
2023-02-08T02:57:06.000Z,3.10
2023-02-08T02:59:35.526Z,3.20
2023-02-08T03:02:04.323Z,3.20
2023-02-08T03:04:34.777Z,3.20
2023-02-08T03:07:11.442Z,3.10
2023-02-08T03:10:07.424Z,3.10
2023-02-08T03:12:34.690Z,3.00
2023-02-08T03:15:11.774Z,3.00
2023-02-08T03:17:57.390Z,3.00
2023-02-08T03:23:53.223Z,3.00
2023-02-08T03:26:43.576Z,3.00
2023-02-08T03:29:23.589Z,3.00
2023-02-08T03:31:58.051Z,3.00
2023-02-08T03:37:44.192Z,3.00
2023-02-08T03:40:43.357Z,3.00
2023-02-08T03:43:38.097Z,3.00
2023-02-08T03:46:11.051Z,2.90
2023-02-08T03:48:41.754Z,2.90
2023-02-08T03:51:10.011Z,2.90
2023-02-08T03:53:40.645Z,2.90
2023-02-08T03:56:15.765Z,2.90
2023-02-08T03:58:49.982Z,2.90
2023-02-08T04:01:23.679Z,2.90
2023-02-08T04:03:54.103Z,2.80
2023-02-08T04:06:22.700Z,2.80
2023-02-08T04:08:50.775Z,2.80
2023-02-08T04:11:17.986Z,2.70
2023-02-08T04:13:45.248Z,2.80
2023-02-08T04:16:13.120Z,2.70
2023-02-08T04:18:40.475Z,2.70
2023-02-08T04:21:08.251Z,2.60
2023-02-08T04:23:35.583Z,2.60
2023-02-08T04:26:05.358Z,2.60
2023-02-08T04:28:32.612Z,2.60
2023-02-08T04:30:59.951Z,2.60
2023-02-08T04:33:27.356Z,2.60
2023-02-08T04:35:54.644Z,2.60
2023-02-08T04:38:21.990Z,2.50
2023-02-08T04:40:49.217Z,2.50
2023-02-08T04:43:16.560Z,2.50
2023-02-08T04:45:43.895Z,2.40
2023-02-08T04:48:12.049Z,2.40
2023-02-08T04:50:39.769Z,2.30
2023-02-08T04:53:07.293Z,2.30
2023-02-08T04:55:35.053Z,2.20
2023-02-08T04:58:02.508Z,2.20
2023-02-08T05:00:30.288Z,2.20
2023-02-08T05:02:58.988Z,2.30
2023-02-08T05:05:27.319Z,2.20
2023-02-08T05:07:54.829Z,2.20
2023-02-08T05:13:04.317Z,2.20
2023-02-08T05:15:31.563Z,2.20
2023-02-08T05:17:58.806Z,2.20
2023-02-08T05:20:26.128Z,2.10
2023-02-08T05:22:53.408Z,2.20
2023-02-08T05:25:20.644Z,2.20
2023-02-08T05:27:48.075Z,2.10
2023-02-08T05:30:15.781Z,2.10
2023-02-08T05:32:43.097Z,2.20
2023-02-08T05:35:10.434Z,2.20
2023-02-08T05:37:37.787Z,2.20
2023-02-08T05:40:05.334Z,2.20
2023-02-08T05:42:32.691Z,2.10
2023-02-08T05:44:59.937Z,2.10
2023-02-08T05:47:27.190Z,2.20
2023-02-08T05:49:54.498Z,2.20
2023-02-08T05:52:21.744Z,2.20
2023-02-08T05:54:49.395Z,2.20
2023-02-08T05:57:16.862Z,2.30
2023-02-08T05:59:44.064Z,2.40
2023-02-08T06:02:11.305Z,2.40
2023-02-08T06:04:39.328Z,2.40
2023-02-08T06:07:06.735Z,2.50
2023-02-08T06:09:34.065Z,2.40
2023-02-08T06:12:01.626Z,2.40
2023-02-08T06:14:28.956Z,2.40
2023-02-08T06:16:56.255Z,2.40
2023-02-08T06:19:23.526Z,2.50
2023-02-08T06:21:50.813Z,2.50
2023-02-08T06:24:18.199Z,2.60
2023-02-08T06:26:45.602Z,2.60
2023-02-08T06:29:12.946Z,2.60
2023-02-08T06:31:40.492Z,2.50
2023-02-08T06:34:08.291Z,2.50
2023-02-08T06:36:35.593Z,2.50
2023-02-08T06:39:03.347Z,2.50
2023-02-08T06:41:30.669Z,2.50
2023-02-08T06:43:59.671Z,2.50
2023-02-08T06:49:08.084Z,2.50
2023-02-08T06:51:35.451Z,2.50
2023-02-08T06:54:02.838Z,2.50
2023-02-08T06:56:30.205Z,2.60
2023-02-08T06:58:57.973Z,2.50
2023-02-08T07:04:06.723Z,2.50
2023-02-08T07:06:34.072Z,2.50
2023-02-08T07:09:02.791Z,2.50
2023-02-08T07:11:30.200Z,2.50
2023-02-08T07:13:57.558Z,2.40
2023-02-08T07:16:24.864Z,2.30
2023-02-08T07:18:52.304Z,2.30
2023-02-08T07:21:19.565Z,2.30
2023-02-08T07:23:46.840Z,2.20
2023-02-08T07:26:17.396Z,2.20
2023-02-08T07:28:44.861Z,2.30
2023-02-08T07:31:17.924Z,2.30
2023-02-08T07:33:45.243Z,2.40
2023-02-08T07:36:12.812Z,2.40
2023-02-08T07:38:40.350Z,2.40
2023-02-08T07:41:10.609Z,2.40
2023-02-08T07:43:39.643Z,2.40
2023-02-08T07:46:15.291Z,2.40
2023-02-08T07:48:43.169Z,2.40
2023-02-08T07:51:11.447Z,2.40
2023-02-08T07:53:39.457Z,2.40
2023-02-08T07:56:07.037Z,2.40
2023-02-08T07:58:34.443Z,2.50
2023-02-08T08:01:07.063Z,2.50
2023-02-08T08:03:43.438Z,2.50
2023-02-08T08:06:11.035Z,2.50
2023-02-08T08:08:39.872Z,2.60
2023-02-08T08:11:07.239Z,2.60
2023-02-08T08:13:34.577Z,2.70
2023-02-08T08:16:01.952Z,2.80
2023-02-08T08:18:29.473Z,2.90
2023-02-08T08:20:56.763Z,3.00
2023-02-08T08:23:24.263Z,3.00
2023-02-08T08:25:51.873Z,3.00
2023-02-08T08:28:19.402Z,3.10
2023-02-08T08:30:46.966Z,3.10
2023-02-08T08:33:14.636Z,3.10
2023-02-08T08:35:44.132Z,3.10
2023-02-08T08:38:11.415Z,3.10
2023-02-08T08:40:38.914Z,3.10
2023-02-08T08:43:06.541Z,3.30
2023-02-08T08:45:33.790Z,3.40
2023-02-08T08:48:01.930Z,3.60
2023-02-08T09:30:34.523Z,6.90
2023-02-08T09:33:01.952Z,7.10
2023-02-08T09:35:29.647Z,7.20
2023-02-08T09:37:58.585Z,7.30
2023-02-08T09:40:31.880Z,7.50
2023-02-08T09:43:11.400Z,7.60
2023-02-08T09:45:59.287Z,7.90
2023-02-08T09:48:35.169Z,8.20
2023-02-08T09:51:09.362Z,8.50
2023-02-08T09:53:40.652Z,8.60
2023-02-08T09:56:14.677Z,8.90
2023-02-08T09:58:46.389Z,9.00
2023-02-08T10:01:27.593Z,9.20
2023-02-08T10:04:03.513Z,9.30
2023-02-08T10:06:31.409Z,9.40
2023-02-08T10:09:02.933Z,9.50
2023-02-08T10:11:48.212Z,9.60
2023-02-08T10:14:23.913Z,9.70
2023-02-08T10:17:12.353Z,9.90
2023-02-08T10:19:50.307Z,10.00
2023-02-08T10:22:27.501Z,10.10
2023-02-08T10:24:58.115Z,10.10
2023-02-08T10:27:35.340Z,10.20
2023-02-08T10:30:19.519Z,10.20
2023-02-08T10:33:38.145Z,10.40
2023-02-08T10:36:17.274Z,10.50
2023-02-08T10:39:37.103Z,10.60
2023-02-08T10:42:10.775Z,10.70
2023-02-08T10:44:55.303Z,10.70
2023-02-08T10:47:35.612Z,10.80
2023-02-08T10:50:07.412Z,10.80
2023-02-08T10:52:34.981Z,10.90
2023-02-08T10:55:03.112Z,10.90
2023-02-08T14:29:27.420Z,11.70
2023-02-08T14:31:55.168Z,11.70
2023-02-08T14:34:25.620Z,11.70
2023-02-08T14:39:29.489Z,11.60
2023-02-08T14:42:04.075Z,11.70
2023-02-08T14:44:57.766Z,11.70
2023-02-08T14:47:48.228Z,11.60
2023-02-08T14:50:23.326Z,11.60
2023-02-08T14:53:07.806Z,11.50
2023-02-08T14:55:48.792Z,11.40
2023-02-08T14:58:28.471Z,11.50
2023-02-08T15:01:00.246Z,11.40
2023-02-08T15:03:30.549Z,11.30
2023-02-08T15:06:24.787Z,11.30
2023-02-08T15:08:53.709Z,11.40
2023-02-08T15:11:27.992Z,11.40
2023-02-08T15:14:00.574Z,11.40
2023-02-08T15:16:41.872Z,11.40
2023-02-08T15:21:37.353Z,11.40
2023-02-08T15:24:30.098Z,11.40
2023-02-08T15:26:58.079Z,11.30
2023-02-08T15:29:42.945Z,11.20
2023-02-08T15:32:20.940Z,11.20
2023-02-08T15:35:02.626Z,11.10
2023-02-08T15:37:34.234Z,11.10
2023-02-08T15:40:03.438Z,11.00
2023-02-08T15:42:34.056Z,11.00
2023-02-08T15:45:02.904Z,11.00
2023-02-08T15:47:36.137Z,10.90
2023-02-08T15:50:06.895Z,10.90
2023-02-08T15:52:36.892Z,10.80
2023-02-08T15:55:08.579Z,10.80
2023-02-08T15:58:15.510Z,10.70
2023-02-08T16:00:45.133Z,10.60
2023-02-08T16:03:23.739Z,10.50
2023-02-08T16:05:54.256Z,10.50
2023-02-08T16:08:28.410Z,10.40
2023-02-08T16:11:03.709Z,10.40
2023-02-08T16:13:33.636Z,10.30
2023-02-08T16:16:40.725Z,10.20
2023-02-08T16:19:29.038Z,10.20
2023-02-08T16:22:25.886Z,10.10
2023-02-08T16:24:53.295Z,10.00
2023-02-08T16:27:30.472Z,9.90
2023-02-08T16:29:59.403Z,9.80
2023-02-08T16:32:31.828Z,9.70
2023-02-08T16:35:01.401Z,9.60
2023-02-08T16:37:35.607Z,9.50
2023-02-08T16:40:43.851Z,9.50
2023-02-08T16:43:31.921Z,9.40
2023-02-08T16:46:21.533Z,9.30
2023-02-08T16:48:56.837Z,9.20
2023-02-08T16:51:34.248Z,9.10
2023-02-08T16:54:07.919Z,9.00
2023-02-08T16:56:36.435Z,8.90
2023-02-08T16:59:04.072Z,8.80
2023-02-08T17:01:32.183Z,8.70
2023-02-08T17:03:59.612Z,8.50
2023-02-08T17:06:31.476Z,8.40
2023-02-08T17:08:59.751Z,8.30
2023-02-08T17:11:27.724Z,8.20
2023-02-08T17:13:55.205Z,8.10
2023-02-08T17:16:24.951Z,8.10
2023-02-08T17:18:52.173Z,8.00
2023-02-08T17:21:19.698Z,7.90
2023-02-08T17:23:47.328Z,7.90
2023-02-08T17:26:27.481Z,7.70
2023-02-08T17:28:56.591Z,7.70
2023-02-08T17:31:25.253Z,7.60
2023-02-08T17:33:52.497Z,7.50
2023-02-08T17:36:19.806Z,7.50
2023-02-08T17:38:47.588Z,7.40
2023-02-08T17:41:19.046Z,7.40
2023-02-08T17:43:50.595Z,7.30
2023-02-08T17:46:21.532Z,7.30
2023-02-08T17:48:48.711Z,7.20
2023-02-08T17:51:19.444Z,7.20
2023-02-08T17:53:47.115Z,7.10
2023-02-08T17:56:20.723Z,7.10
2023-02-08T17:58:51.424Z,7.00
2023-02-08T18:01:24.151Z,7.00
2023-02-08T18:03:52.032Z,6.90
2023-02-08T18:06:20.194Z,6.90
2023-02-08T18:08:47.452Z,6.80
2023-02-08T18:11:19.601Z,6.80
2023-02-08T18:13:49.237Z,6.70
2023-02-08T18:16:19.762Z,6.60
2023-02-08T18:18:47.026Z,6.50
2023-02-08T18:21:19.146Z,6.40
2023-02-08T18:23:47.258Z,6.40
2023-02-08T18:26:17.633Z,6.30
2023-02-08T18:28:45.386Z,6.30
2023-02-08T18:31:15.524Z,6.20
2023-02-08T18:33:43.969Z,6.20
2023-02-08T18:36:11.717Z,6.10
2023-02-08T18:38:40.390Z,6.10
2023-02-08T18:41:09.446Z,6.00
2023-02-08T18:43:38.204Z,5.90
2023-02-08T18:46:09.890Z,5.80
2023-02-08T18:48:38.946Z,5.80
2023-02-08T18:51:08.172Z,5.70
2023-02-08T18:53:38.319Z,5.70
2023-02-08T18:56:07.508Z,5.70
2023-02-08T18:58:35.109Z,5.70
2023-02-08T19:01:11.087Z,5.70
2023-02-08T19:03:39.008Z,5.70
2023-02-08T19:06:09.215Z,5.70
2023-02-08T19:08:37.673Z,5.80
2023-02-08T19:11:15.044Z,5.80
2023-02-08T19:13:42.796Z,5.90
2023-02-08T19:16:10.517Z,5.90
2023-02-08T19:18:37.855Z,5.90
2023-02-08T19:21:07.136Z,5.80
2023-02-08T19:23:34.725Z,5.80
2023-02-08T19:26:19.375Z,5.70
2023-02-08T19:28:46.733Z,5.70
2023-02-08T19:31:18.234Z,5.60
2023-02-08T19:33:47.784Z,5.50
2023-02-08T19:36:19.177Z,5.50
2023-02-08T19:38:48.432Z,5.50
2023-02-08T19:41:22.848Z,5.40
2023-02-08T19:43:50.328Z,5.40
2023-02-08T19:46:20.769Z,5.40
2023-02-08T19:48:49.531Z,5.30
2023-02-08T19:51:17.937Z,5.20
2023-02-08T19:53:45.925Z,5.20
2023-02-08T19:56:16.044Z,5.20
2023-02-08T19:58:43.765Z,5.20
2023-02-08T20:01:14.808Z,5.20
2023-02-08T20:03:42.477Z,5.20
2023-02-08T20:06:31.368Z,5.20
2023-02-08T20:09:00.454Z,5.10
2023-02-08T20:11:30.714Z,5.00
2023-02-08T20:13:59.923Z,4.90
2023-02-08T20:16:31.597Z,4.80
2023-02-08T20:19:00.435Z,4.80
2023-02-08T20:21:28.343Z,4.90
2023-02-08T20:23:55.826Z,4.80
2023-02-08T20:26:26.671Z,4.80
2023-02-08T20:28:57.668Z,4.70
2023-02-08T20:31:31.430Z,4.70
2023-02-08T20:34:00.797Z,4.70
2023-02-08T20:36:32.052Z,4.70
2023-02-08T20:39:00.240Z,4.70
2023-02-08T20:41:33.022Z,4.70
2023-02-08T20:44:00.869Z,4.60
2023-02-08T20:46:34.599Z,4.50
2023-02-08T20:49:05.128Z,4.40
2023-02-08T20:51:32.562Z,4.30
2023-02-08T20:54:00.964Z,4.20
2023-02-08T20:56:31.749Z,4.20
2023-02-08T20:59:04.553Z,4.10
2023-02-08T21:01:33.961Z,4.20
2023-02-08T21:04:01.809Z,4.20
2023-02-08T21:06:31.925Z,4.20
2023-02-08T21:09:02.158Z,4.20
2023-02-08T21:11:31.749Z,4.30
2023-02-08T21:14:00.455Z,4.20
2023-02-08T21:16:28.397Z,4.20
2023-02-08T21:18:57.487Z,4.20
2023-02-08T21:21:25.598Z,4.20
2023-02-08T21:23:52.980Z,4.20
2023-02-08T21:26:21.321Z,4.20
2023-02-08T21:28:52.010Z,4.20
2023-02-08T21:31:22.286Z,4.20
2023-02-08T21:33:50.932Z,4.20
2023-02-08T21:36:21.861Z,4.20
2023-02-08T21:38:49.247Z,4.20
2023-02-08T21:41:29.356Z,4.20
2023-02-08T21:43:59.130Z,4.20
2023-02-08T21:46:28.563Z,4.20
2023-02-08T21:49:17.280Z,4.20
2023-02-08T21:52:05.229Z,4.20
2023-02-08T21:54:53.969Z,4.10
2023-02-08T21:57:25.994Z,4.00
2023-02-08T21:59:57.201Z,3.90
2023-02-08T22:02:27.948Z,3.80
2023-02-08T22:05:17.508Z,3.80
2023-02-08T22:07:48.875Z,3.80
2023-02-08T22:10:19.374Z,3.70
2023-02-08T22:12:47.422Z,3.70
2023-02-08T22:15:17.618Z,3.60
2023-02-08T22:17:45.366Z,3.60
2023-02-08T22:20:14.785Z,3.60
2023-02-08T22:22:42.003Z,3.60
2023-02-08T22:25:09.422Z,3.60
2023-02-08T22:27:39.455Z,3.60
2023-02-08T22:30:08.899Z,3.60
2023-02-08T22:32:39.131Z,3.60
2023-02-08T22:35:06.678Z,3.60
2023-02-08T22:37:34.396Z,3.50
2023-02-08T22:40:02.013Z,3.50
2023-02-08T22:42:29.346Z,3.40
2023-02-08T22:44:56.574Z,3.40
2023-02-08T22:47:23.946Z,3.40
2023-02-08T22:49:51.266Z,3.40
2023-02-08T22:52:18.578Z,3.30
2023-02-08T22:54:46.320Z,3.30
2023-02-08T22:57:13.515Z,3.30
2023-02-08T22:59:40.928Z,3.30
2023-02-08T23:02:08.266Z,3.20
2023-02-08T23:04:37.417Z,3.10
2023-02-08T23:07:05.163Z,3.10
2023-02-08T23:09:32.260Z,3.20
2023-02-08T23:11:59.572Z,3.20
2023-02-08T23:14:26.669Z,3.20
2023-02-08T23:16:53.988Z,3.20
2023-02-08T23:19:21.158Z,3.20
2023-02-08T23:21:48.391Z,3.10
2023-02-08T23:24:15.597Z,3.10
2023-02-08T23:26:43.156Z,3.10
2023-02-08T23:29:10.278Z,3.10
2023-02-08T23:31:40.860Z,3.20
2023-02-08T23:34:08.127Z,3.20
2023-02-08T23:36:35.236Z,3.20
2023-02-08T23:39:03.801Z,3.10
2023-02-08T23:41:31.091Z,3.10
2023-02-08T23:43:58.518Z,3.10
2023-02-08T23:46:28.105Z,3.10
2023-02-08T23:48:55.905Z,3.10
2023-02-08T23:51:24.641Z,3.20
2023-02-08T23:53:54.237Z,3.30
2023-02-08T23:56:31.937Z,3.30
2023-02-08T23:58:59.844Z,3.40
